createdAt,value
2015-09-17T00:00:09.755Z,94188
2015-09-17T00:00:28.130Z,94185
2015-09-17T00:00:46.521Z,94181
2015-09-17T00:01:04.818Z,94187
2015-09-17T00:01:23.381Z,94190
2015-09-17T00:01:41.945Z,94192
2015-09-17T00:02:00.461Z,94190
2015-09-17T00:02:18.930Z,94196
2015-09-17T00:02:37.601Z,94185
2015-09-17T00:02:56.041Z,94188
2015-09-17T00:03:14.478Z,94196
2015-09-17T00:03:32.916Z,94196
2015-09-17T00:03:51.402Z,94197
2015-09-17T00:04:09.871Z,94191
2015-09-17T00:04:28.246Z,94193
2015-09-17T00:04:46.732Z,94193
2015-09-17T00:05:05.232Z,94190
2015-09-17T00:05:23.779Z,94199
2015-09-17T00:05:42.201Z,94187
2015-09-17T00:06:00.625Z,94193
2015-09-17T00:06:19.047Z,94190
2015-09-17T00:06:37.609Z,94192
2015-09-17T00:06:56.065Z,94192
2015-09-17T00:07:14.580Z,94193
2015-09-17T00:07:33.252Z,94187
2015-09-17T00:07:51.785Z,94190
2015-09-17T00:08:10.270Z,94187
2015-09-17T00:08:28.817Z,94200
2015-09-17T00:08:47.238Z,94194
2015-09-17T00:09:06.069Z,94194
2015-09-17T00:09:24.819Z,94200
2015-09-17T00:09:43.209Z,94204
2015-09-17T00:10:01.711Z,94201
2015-09-17T00:10:20.446Z,94194
2015-09-17T00:10:38.899Z,94204
2015-09-17T00:10:57.494Z,94214
2015-09-17T00:11:16.166Z,94218
2015-09-17T00:11:34.541Z,94213
2015-09-17T00:11:52.950Z,94213
2015-09-17T00:12:11.465Z,94214
2015-09-17T00:12:29.887Z,94210
2015-09-17T00:12:48.653Z,94217
2015-09-17T00:13:07.077Z,94214
2015-09-17T00:13:25.655Z,94214
2015-09-17T00:13:44.077Z,94216
2015-09-17T00:14:02.656Z,94219
2015-09-17T00:14:21.390Z,94214
2015-09-17T00:14:39.765Z,94226
2015-09-17T00:14:58.174Z,94218
2015-09-17T00:15:16.659Z,94213
2015-09-17T00:15:35.315Z,94215
2015-09-17T00:15:54.096Z,94205
2015-09-17T00:16:12.833Z,94214
2015-09-17T00:16:31.270Z,94209
2015-09-17T00:16:49.817Z,94209
2015-09-17T00:17:08.303Z,94217
2015-09-17T00:17:26.772Z,94220
2015-09-17T00:17:45.350Z,94218
2015-09-17T00:18:03.977Z,94220
2015-09-17T00:18:22.227Z,94224
2015-09-17T00:18:40.727Z,94214
2015-09-17T00:18:59.493Z,94218
2015-09-17T00:19:17.995Z,94218
2015-09-17T00:19:36.385Z,94218
2015-09-17T00:19:54.745Z,94218
2015-09-17T00:20:13.481Z,94216
2015-09-17T00:20:31.950Z,94216
2015-09-17T00:20:50.512Z,94214
2015-09-17T00:21:08.936Z,94214
2015-09-17T00:21:27.655Z,94224
2015-09-17T00:21:46.218Z,94220
2015-09-17T00:22:04.828Z,94218
2015-09-17T00:22:23.234Z,94223
2015-09-17T00:22:41.812Z,94223
2015-09-17T00:23:00.781Z,94215
2015-09-17T00:23:19.486Z,94215
2015-09-17T00:23:38.049Z,94217
2015-09-17T00:23:56.517Z,94220
2015-09-17T00:24:14.988Z,94223
2015-09-17T00:24:33.535Z,94215
2015-09-17T00:24:52.160Z,94223
2015-09-17T00:25:10.663Z,94223
2015-09-17T00:25:29.038Z,94228
2015-09-17T00:25:47.397Z,94221
2015-09-17T00:26:05.835Z,94229
2015-09-17T00:26:24.258Z,94237
2015-09-17T00:26:42.617Z,94226
2015-09-17T00:27:01.039Z,94216
2015-09-17T00:27:19.463Z,94226
2015-09-17T00:27:37.885Z,94229
2015-09-17T00:27:56.135Z,94222
2015-09-17T00:28:14.652Z,94217
2015-09-17T00:28:33.027Z,94222
2015-09-17T00:28:51.512Z,94228
2015-09-17T00:29:10.012Z,94225
2015-09-17T00:29:28.717Z,94233
2015-09-17T00:29:47.342Z,94227
2015-09-17T00:30:05.701Z,94241
2015-09-17T00:30:24.141Z,94227
2015-09-17T00:30:42.703Z,94243
2015-09-17T00:31:01.094Z,94240
2015-09-17T00:31:19.627Z,94238
2015-09-17T00:31:38.002Z,94235
2015-09-17T00:31:56.565Z,94243
2015-09-17T00:32:15.051Z,94240
2015-09-17T00:32:33.614Z,94246
2015-09-17T00:32:52.067Z,94244
2015-09-17T00:33:10.676Z,94239
2015-09-17T00:33:29.037Z,94242
2015-09-17T00:33:47.600Z,94233
2015-09-17T00:34:06.194Z,94239
2015-09-17T00:34:24.789Z,94245
2015-09-17T00:34:43.274Z,94242
2015-09-17T00:35:01.758Z,94228
2015-09-17T00:35:20.354Z,94239
2015-09-17T00:35:38.870Z,94242
2015-09-17T00:35:57.307Z,94244
2015-09-17T00:36:15.932Z,94244
2015-09-17T00:36:34.449Z,94243
2015-09-17T00:36:53.199Z,94238
2015-09-17T00:37:11.871Z,94243
2015-09-17T00:37:30.263Z,94230
2015-09-17T00:37:48.748Z,94230
2015-09-17T00:38:07.107Z,94225
2015-09-17T00:38:25.719Z,94233
2015-09-17T00:38:44.141Z,94236
2015-09-17T00:39:02.704Z,94230
2015-09-17T00:39:21.079Z,94232
2015-09-17T00:39:39.940Z,94238
2015-09-17T00:39:58.690Z,94238
2015-09-17T00:40:17.331Z,94232
2015-09-17T00:40:36.004Z,94230
2015-09-17T00:40:54.597Z,94243
2015-09-17T00:41:13.347Z,94238
2015-09-17T00:41:31.757Z,94243
2015-09-17T00:41:50.272Z,94242
2015-09-17T00:42:08.757Z,94240
2015-09-17T00:42:27.320Z,94248
2015-09-17T00:42:45.851Z,94251
2015-09-17T00:43:04.242Z,94246
2015-09-17T00:43:22.976Z,94247
2015-09-17T00:43:41.416Z,94246
2015-09-17T00:43:59.963Z,94257
2015-09-17T00:44:18.353Z,94248
2015-09-17T00:44:36.824Z,94249
2015-09-17T00:44:55.387Z,94246
2015-09-17T00:45:13.855Z,94236
2015-09-17T00:45:32.436Z,94230
2015-09-17T00:45:50.890Z,94233
2015-09-17T00:46:09.343Z,94233
2015-09-17T00:46:27.921Z,94238
2015-09-17T00:46:46.720Z,94244
2015-09-17T00:47:05.079Z,94242
2015-09-17T00:47:23.860Z,94241
2015-09-17T00:47:42.408Z,94235
2015-09-17T00:48:00.768Z,94241
2015-09-17T00:48:19.330Z,94241
2015-09-17T00:48:37.816Z,94238
2015-09-17T00:48:56.223Z,94238
2015-09-17T00:49:14.738Z,94227
2015-09-17T00:49:33.631Z,94235
2015-09-17T00:49:51.990Z,94241
2015-09-17T00:50:10.631Z,94233
2015-09-17T00:50:29.006Z,94230
2015-09-17T00:50:47.524Z,94230
2015-09-17T00:51:05.899Z,94241
2015-09-17T00:51:24.445Z,94232
2015-09-17T00:51:42.838Z,94238
2015-09-17T00:52:01.416Z,94240
2015-09-17T00:52:20.010Z,94237
2015-09-17T00:52:38.496Z,94243
2015-09-17T00:52:56.949Z,94238
2015-09-17T00:53:15.371Z,94235
2015-09-17T00:53:33.746Z,94233
2015-09-17T00:53:52.295Z,94233
2015-09-17T00:54:10.670Z,94236
2015-09-17T00:54:29.076Z,94248
2015-09-17T00:54:47.703Z,94247
2015-09-17T00:55:06.078Z,94247
2015-09-17T00:55:24.657Z,94241
2015-09-17T00:55:43.018Z,94249
2015-09-17T00:56:01.424Z,94252
2015-09-17T00:56:19.799Z,94250
2015-09-17T00:56:38.221Z,94247
2015-09-17T00:56:56.691Z,94253
2015-09-17T00:57:15.253Z,94260
2015-09-17T00:57:33.847Z,94261
2015-09-17T00:57:52.538Z,94261
2015-09-17T00:58:10.897Z,94270
2015-09-17T00:58:29.475Z,94268
2015-09-17T00:58:47.883Z,94273
2015-09-17T00:59:06.274Z,94261
2015-09-17T00:59:25.243Z,94259
2015-09-17T00:59:43.635Z,94263
2015-09-17T01:00:02.135Z,94268
2015-09-17T01:00:20.807Z,94277
2015-09-17T01:00:39.276Z,94266
2015-09-17T01:00:57.653Z,94279
2015-09-17T01:01:16.012Z,94276
2015-09-17T01:01:34.419Z,94276
2015-09-17T01:01:53.171Z,94276
2015-09-17T01:02:11.514Z,94282
2015-09-17T01:02:30.108Z,94277
2015-09-17T01:02:48.469Z,94282
2015-09-17T01:03:07.032Z,94276
2015-09-17T01:03:25.735Z,94278
2015-09-17T01:03:44.204Z,94262
2015-09-17T01:04:02.595Z,94273
2015-09-17T01:04:20.986Z,94273
2015-09-17T01:04:39.549Z,94276
2015-09-17T01:04:57.911Z,94278
2015-09-17T01:05:16.520Z,94281
2015-09-17T01:05:34.911Z,94276
2015-09-17T01:05:53.271Z,94275
2015-09-17T01:06:11.678Z,94280
2015-09-17T01:06:30.099Z,94286
2015-09-17T01:06:48.537Z,94283
2015-09-17T01:07:07.133Z,94280
2015-09-17T01:07:25.711Z,94280
2015-09-17T01:07:44.086Z,94277
2015-09-17T01:08:03.072Z,94283
2015-09-17T01:08:21.541Z,94280
2015-09-17T01:08:40.041Z,94278
2015-09-17T01:08:58.622Z,94292
2015-09-17T01:09:17.060Z,94288
2015-09-17T01:09:35.622Z,94288
2015-09-17T01:09:54.122Z,94289
2015-09-17T01:10:12.639Z,94278
2015-09-17T01:10:31.029Z,94287
2015-09-17T01:10:49.436Z,94290
2015-09-17T01:11:07.844Z,94283
2015-09-17T01:11:26.359Z,94286
2015-09-17T01:11:44.750Z,94288
2015-09-17T01:12:03.127Z,94283
2015-09-17T01:12:21.533Z,94281
2015-09-17T01:12:39.955Z,94287
2015-09-17T01:12:58.318Z,94284
2015-09-17T01:13:16.849Z,94279
2015-09-17T01:13:35.443Z,94289
2015-09-17T01:13:54.068Z,94275
2015-09-17T01:14:12.584Z,94290
2015-09-17T01:14:31.162Z,94282
2015-09-17T01:14:49.694Z,94287
2015-09-17T01:15:08.274Z,94288
2015-09-17T01:15:27.039Z,94282
2015-09-17T01:15:45.430Z,94282
2015-09-17T01:16:03.838Z,94282
2015-09-17T01:16:22.448Z,94282
2015-09-17T01:16:40.869Z,94282
2015-09-17T01:16:59.448Z,94275
2015-09-17T01:17:18.012Z,94284
2015-09-17T01:17:36.371Z,94284
2015-09-17T01:17:54.731Z,94287
2015-09-17T01:18:13.420Z,94287
2015-09-17T01:18:32.045Z,94281
2015-09-17T01:18:50.452Z,94289
2015-09-17T01:19:09.000Z,94287
2015-09-17T01:19:27.375Z,94295
2015-09-17T01:19:45.969Z,94290
2015-09-17T01:20:04.344Z,94284
2015-09-17T01:20:23.096Z,94296
2015-09-17T01:20:41.815Z,94289
2015-09-17T01:21:00.346Z,94281
2015-09-17T01:21:18.864Z,94295
2015-09-17T01:21:37.426Z,94291
2015-09-17T01:21:55.926Z,94291
2015-09-17T01:22:14.319Z,94288
2015-09-17T01:22:32.819Z,94291
2015-09-17T01:22:51.272Z,94294
2015-09-17T01:23:09.665Z,94291
2015-09-17T01:23:28.165Z,94291
2015-09-17T01:23:46.837Z,94288
2015-09-17T01:24:05.196Z,94291
2015-09-17T01:24:23.573Z,94296
2015-09-17T01:24:42.042Z,94304
2015-09-17T01:25:00.526Z,94299
2015-09-17T01:25:19.106Z,94296
2015-09-17T01:25:37.591Z,94296
2015-09-17T01:25:56.075Z,94301
2015-09-17T01:26:14.827Z,94301
2015-09-17T01:26:33.389Z,94296
2015-09-17T01:26:51.796Z,94299
2015-09-17T01:27:10.186Z,94296
2015-09-17T01:27:28.765Z,94302
2015-09-17T01:27:47.453Z,94296
2015-09-17T01:28:05.890Z,94299
2015-09-17T01:28:24.190Z,94296
2015-09-17T01:28:42.550Z,94293
2015-09-17T01:29:01.222Z,94302
2015-09-17T01:29:19.848Z,94288
2015-09-17T01:29:38.410Z,94294
2015-09-17T01:29:56.863Z,94298
2015-09-17T01:30:15.441Z,94289
2015-09-17T01:30:33.990Z,94297
2015-09-17T01:30:52.350Z,94291
2015-09-17T01:31:10.834Z,94291
2015-09-17T01:31:29.258Z,94291
2015-09-17T01:31:47.867Z,94293
2015-09-17T01:32:06.367Z,94302
2015-09-17T01:32:25.088Z,94290
2015-09-17T01:32:43.525Z,94290
2015-09-17T01:33:02.041Z,94304
2015-09-17T01:33:20.447Z,94290
2015-09-17T01:33:38.919Z,94299
2015-09-17T01:33:57.450Z,94301
2015-09-17T01:34:16.013Z,94295
2015-09-17T01:34:34.529Z,94292
2015-09-17T01:34:52.998Z,94289
2015-09-17T01:35:11.561Z,94293
2015-09-17T01:35:30.048Z,94296
2015-09-17T01:35:48.501Z,94298
2015-09-17T01:36:06.876Z,94290
2015-09-17T01:36:25.268Z,94295
2015-09-17T01:36:43.705Z,94303
2015-09-17T01:37:02.158Z,94298
2015-09-17T01:37:20.518Z,94303
2015-09-17T01:37:38.989Z,94301
2015-09-17T01:37:57.379Z,94306
2015-09-17T01:38:15.739Z,94306
2015-09-17T01:38:34.287Z,94309
2015-09-17T01:38:52.756Z,94314
2015-09-17T01:39:11.241Z,94312
2015-09-17T01:39:29.696Z,94322
2015-09-17T01:39:48.336Z,94314
2015-09-17T01:40:06.696Z,94320
2015-09-17T01:40:25.305Z,94315
2015-09-17T01:40:43.791Z,94310
2015-09-17T01:41:02.557Z,94312
2015-09-17T01:41:21.041Z,94309
2015-09-17T01:41:39.793Z,94321
2015-09-17T01:41:58.512Z,94318
2015-09-17T01:42:16.950Z,94315
2015-09-17T01:42:35.342Z,94323
2015-09-17T01:42:53.967Z,94318
2015-09-17T01:43:12.358Z,94318
2015-09-17T01:43:30.891Z,94318
2015-09-17T01:43:49.251Z,94310
2015-09-17T01:44:07.766Z,94318
2015-09-17T01:44:26.329Z,94317
2015-09-17T01:44:44.784Z,94328
2015-09-17T01:45:03.456Z,94322
2015-09-17T01:45:22.018Z,94321
2015-09-17T01:45:40.536Z,94316
2015-09-17T01:45:58.942Z,94320
2015-09-17T01:46:17.645Z,94306
2015-09-17T01:46:36.272Z,94309
2015-09-17T01:46:54.725Z,94314
2015-09-17T01:47:13.100Z,94314
2015-09-17T01:47:31.725Z,94311
2015-09-17T01:47:50.273Z,94306
2015-09-17T01:48:08.836Z,94312
2015-09-17T01:48:27.273Z,94319
2015-09-17T01:48:45.806Z,94314
2015-09-17T01:49:04.244Z,94314
2015-09-17T01:49:22.650Z,94320
2015-09-17T01:49:41.200Z,94314
2015-09-17T01:49:59.747Z,94317
2015-09-17T01:50:18.169Z,94312
2015-09-17T01:50:36.731Z,94318
2015-09-17T01:50:55.280Z,94315
2015-09-17T01:51:13.827Z,94307
2015-09-17T01:51:32.186Z,94310
2015-09-17T01:51:50.642Z,94310
2015-09-17T01:52:09.220Z,94318
2015-09-17T01:52:27.642Z,94315
2015-09-17T01:52:46.190Z,94318
2015-09-17T01:53:04.722Z,94321
2015-09-17T01:53:23.300Z,94318
2015-09-17T01:53:41.738Z,94320
2015-09-17T01:54:00.160Z,94312
2015-09-17T01:54:18.676Z,94325
2015-09-17T01:54:37.223Z,94323
2015-09-17T01:54:55.663Z,94312
2015-09-17T01:55:14.085Z,94326
2015-09-17T01:55:32.835Z,94323
2015-09-17T01:55:51.337Z,94310
2015-09-17T01:56:09.806Z,94323
2015-09-17T01:56:28.181Z,94315
2015-09-17T01:56:46.588Z,94323
2015-09-17T01:57:05.072Z,94323
2015-09-17T01:57:23.479Z,94320
2015-09-17T01:57:41.901Z,94323
2015-09-17T01:58:00.528Z,94326
2015-09-17T01:58:18.887Z,94333
2015-09-17T01:58:37.465Z,94323
2015-09-17T01:58:55.842Z,94326
2015-09-17T01:59:14.326Z,94328
2015-09-17T01:59:33.123Z,94326
2015-09-17T01:59:51.625Z,94317
2015-09-17T02:00:10.125Z,94323
2015-09-17T02:00:29.125Z,94331
2015-09-17T02:00:47.516Z,94328
2015-09-17T02:01:05.877Z,94328
2015-09-17T02:01:24.440Z,94317
2015-09-17T02:01:42.815Z,94341
2015-09-17T02:02:01.286Z,94333
2015-09-17T02:02:19.942Z,94342
2015-09-17T02:02:38.754Z,94342
2015-09-17T02:02:57.147Z,94337
2015-09-17T02:03:15.834Z,94340
2015-09-17T02:03:34.413Z,94340
2015-09-17T02:03:52.961Z,94337
2015-09-17T02:04:11.727Z,94351
2015-09-17T02:04:30.665Z,94343
2015-09-17T02:04:49.024Z,94343
2015-09-17T02:05:07.901Z,94351
2015-09-17T02:05:26.370Z,94346
2015-09-17T02:05:45.010Z,94352
2015-09-17T02:06:03.465Z,94347
2015-09-17T02:06:21.950Z,94341
2015-09-17T02:06:40.309Z,94352
2015-09-17T02:06:58.811Z,94347
2015-09-17T02:07:17.342Z,94355
2015-09-17T02:07:35.827Z,94359
2015-09-17T02:07:54.186Z,94353
2015-09-17T02:08:12.641Z,94352
2015-09-17T02:08:31.391Z,94357
2015-09-17T02:08:49.798Z,94355
2015-09-17T02:09:08.267Z,94349
2015-09-17T02:09:26.689Z,94352
2015-09-17T02:09:45.252Z,94359
2015-09-17T02:10:03.691Z,94356
2015-09-17T02:10:22.191Z,94361
2015-09-17T02:10:40.754Z,94362
2015-09-17T02:10:59.287Z,94368
2015-09-17T02:11:18.099Z,94365
2015-09-17T02:11:36.490Z,94371
2015-09-17T02:11:54.959Z,94374
2015-09-17T02:12:13.509Z,94361
2015-09-17T02:12:31.899Z,94364
2015-09-17T02:12:50.321Z,94361
2015-09-17T02:13:08.713Z,94363
2015-09-17T02:13:27.072Z,94363
2015-09-17T02:13:45.463Z,94357
2015-09-17T02:14:03.965Z,94368
2015-09-17T02:14:22.340Z,94362
2015-09-17T02:14:40.793Z,94362
2015-09-17T02:14:59.152Z,94360
2015-09-17T02:15:17.608Z,94357
2015-09-17T02:15:36.062Z,94366
2015-09-17T02:15:54.640Z,94357
2015-09-17T02:16:13.188Z,94368
2015-09-17T02:16:31.797Z,94360
2015-09-17T02:16:50.156Z,94371
2015-09-17T02:17:08.672Z,94368
2015-09-17T02:17:27.253Z,94366
2015-09-17T02:17:45.987Z,94371
2015-09-17T02:18:04.597Z,94360
2015-09-17T02:18:23.068Z,94371
2015-09-17T02:18:41.614Z,94363
2015-09-17T02:19:00.021Z,94369
2015-09-17T02:19:18.382Z,94371
2015-09-17T02:19:37.007Z,94377
2015-09-17T02:19:55.835Z,94369
2015-09-17T02:20:14.602Z,94372
2015-09-17T02:20:33.008Z,94374
2015-09-17T02:20:51.336Z,94363
2015-09-17T02:21:09.696Z,94365
2015-09-17T02:21:28.073Z,94368
2015-09-17T02:21:46.432Z,94359
2015-09-17T02:22:04.791Z,94364
2015-09-17T02:22:23.168Z,94373
2015-09-17T02:22:41.528Z,94362
2015-09-17T02:23:00.137Z,94360
2015-09-17T02:23:18.545Z,94365
2015-09-17T02:23:37.248Z,94362
2015-09-17T02:23:56.280Z,94365
2015-09-17T02:24:14.748Z,94370
2015-09-17T02:24:33.219Z,94359
2015-09-17T02:24:51.594Z,94360
2015-09-17T02:25:10.063Z,94360
2015-09-17T02:25:28.831Z,94353
2015-09-17T02:25:47.643Z,94353
2015-09-17T02:26:06.065Z,94350
2015-09-17T02:26:24.692Z,94355
2015-09-17T02:26:43.083Z,94357
2015-09-17T02:27:01.583Z,94353
2015-09-17T02:27:20.129Z,94360
2015-09-17T02:27:38.647Z,94348
2015-09-17T02:27:57.116Z,94345
2015-09-17T02:28:15.835Z,94355
2015-09-17T02:28:34.337Z,94353
2015-09-17T02:28:52.727Z,94347
2015-09-17T02:29:11.165Z,94363
2015-09-17T02:29:29.542Z,94355
2015-09-17T02:29:47.901Z,94357
2015-09-17T02:30:06.573Z,94357
2015-09-17T02:30:25.091Z,94355
2015-09-17T02:30:43.497Z,94353
2015-09-17T02:31:02.059Z,94347
2015-09-17T02:31:20.747Z,94348
2015-09-17T02:31:39.280Z,94356
2015-09-17T02:31:58.124Z,94360
2015-09-17T02:32:16.764Z,94353
2015-09-17T02:32:34.970Z,94357
2015-09-17T02:32:53.360Z,94360
2015-09-17T02:33:12.110Z,94354
2015-09-17T02:33:30.487Z,94361
2015-09-17T02:33:48.956Z,94355
2015-09-17T02:34:07.675Z,94358
2015-09-17T02:34:26.159Z,94351
2015-09-17T02:34:44.567Z,94353
2015-09-17T02:35:03.067Z,94356
2015-09-17T02:35:21.692Z,94354
2015-09-17T02:35:40.116Z,94351
2015-09-17T02:35:58.616Z,94354
2015-09-17T02:36:16.991Z,94349
2015-09-17T02:36:35.399Z,94346
2015-09-17T02:36:53.806Z,94349
2015-09-17T02:37:12.243Z,94349
2015-09-17T02:37:30.839Z,94347
2015-09-17T02:37:49.401Z,94350
2015-09-17T02:38:07.605Z,94345
2015-09-17T02:38:25.995Z,94351
2015-09-17T02:38:44.418Z,94353
2015-09-17T02:39:02.856Z,94340
2015-09-17T02:39:21.262Z,94350
2015-09-17T02:39:39.623Z,94353
2015-09-17T02:39:57.983Z,94351
2015-09-17T02:40:16.467Z,94339
2015-09-17T02:40:34.986Z,94348
2015-09-17T02:40:53.407Z,94351
2015-09-17T02:41:11.855Z,94351
2015-09-17T02:41:30.480Z,94347
2015-09-17T02:41:48.919Z,94347
2015-09-17T02:42:07.216Z,94360
2015-09-17T02:42:25.435Z,94347
2015-09-17T02:42:43.842Z,94349
2015-09-17T02:43:02.311Z,94356
2015-09-17T02:43:20.498Z,94352
2015-09-17T02:43:38.391Z,94365
2015-09-17T02:43:56.782Z,94359
2015-09-17T02:44:15.171Z,94365
2015-09-17T02:44:33.218Z,94371
2015-09-17T02:44:51.798Z,94363
2015-09-17T02:45:10.173Z,94355
2015-09-17T02:45:28.564Z,94361
2015-09-17T02:45:47.004Z,94360
2015-09-17T02:46:05.692Z,94358
2015-09-17T02:46:24.207Z,94366
2015-09-17T02:46:42.583Z,94366
2015-09-17T02:47:00.943Z,94364
2015-09-17T02:47:19.318Z,94358
2015-09-17T02:47:37.724Z,94353
2015-09-17T02:47:56.164Z,94355
2015-09-17T02:48:14.523Z,94356
2015-09-17T02:48:32.976Z,94355
2015-09-17T02:48:51.681Z,94355
2015-09-17T02:49:10.009Z,94360
2015-09-17T02:49:28.666Z,94356
2015-09-17T02:49:47.043Z,94351
2015-09-17T02:50:05.621Z,94362
2015-09-17T02:50:24.168Z,94348
2015-09-17T02:50:42.652Z,94351
2015-09-17T02:51:01.076Z,94366
2015-09-17T02:51:19.466Z,94351
2015-09-17T02:51:37.935Z,94358
2015-09-17T02:51:56.500Z,94366
2015-09-17T02:52:14.953Z,94351
2015-09-17T02:52:33.328Z,94355
2015-09-17T02:52:51.720Z,94361
2015-09-17T02:53:10.174Z,94362
2015-09-17T02:53:28.689Z,94359
2015-09-17T02:53:47.262Z,94356
2015-09-17T02:54:05.686Z,94355
2015-09-17T02:54:24.093Z,94366
2015-09-17T02:54:42.561Z,94360
2015-09-17T02:55:01.016Z,94358
2015-09-17T02:55:19.595Z,94361
2015-09-17T02:55:37.970Z,94367
2015-09-17T02:55:56.347Z,94362
2015-09-17T02:56:14.800Z,94371
2015-09-17T02:56:33.268Z,94357
2015-09-17T02:56:51.597Z,94365
2015-09-17T02:57:10.051Z,94368
2015-09-17T02:57:28.551Z,94368
2015-09-17T02:57:46.957Z,94363
2015-09-17T02:58:05.507Z,94371
2015-09-17T02:58:24.585Z,94357
2015-09-17T02:58:43.272Z,94362
2015-09-17T02:59:01.930Z,94368
2015-09-17T02:59:20.305Z,94362
2015-09-17T02:59:38.680Z,94368
2015-09-17T02:59:57.148Z,94364
2015-09-17T03:00:15.745Z,94367
2015-09-17T03:00:34.136Z,94365
2015-09-17T03:00:52.745Z,94373
2015-09-17T03:01:11.122Z,94367
2015-09-17T03:01:29.482Z,94368
2015-09-17T03:01:48.013Z,94376
2015-09-17T03:02:06.390Z,94367
2015-09-17T03:02:24.609Z,94370
2015-09-17T03:02:43.171Z,94367
2015-09-17T03:03:01.640Z,94367
2015-09-17T03:03:20.203Z,94378
2015-09-17T03:03:38.828Z,94367
2015-09-17T03:03:57.422Z,94370
2015-09-17T03:04:15.800Z,94381
2015-09-17T03:04:34.331Z,94375
2015-09-17T03:04:52.894Z,94383
2015-09-17T03:05:11.348Z,94380
2015-09-17T03:05:29.957Z,94386
2015-09-17T03:05:48.551Z,94385
2015-09-17T03:06:07.381Z,94377
2015-09-17T03:06:25.991Z,94382
2015-09-17T03:06:44.397Z,94376
2015-09-17T03:07:03.225Z,94379
2015-09-17T03:07:21.586Z,94381
2015-09-17T03:07:40.133Z,94382
2015-09-17T03:07:58.852Z,94381
2015-09-17T03:08:17.480Z,94373
2015-09-17T03:08:36.167Z,94391
2015-09-17T03:08:54.855Z,94378
2015-09-17T03:09:13.340Z,94378
2015-09-17T03:09:31.715Z,94373
2015-09-17T03:09:50.153Z,94385
2015-09-17T03:10:08.622Z,94374
2015-09-17T03:10:27.170Z,94391
2015-09-17T03:10:45.717Z,94377
2015-09-17T03:11:04.186Z,94388
2015-09-17T03:11:22.797Z,94371
2015-09-17T03:11:41.563Z,94384
2015-09-17T03:12:00.110Z,94379
2015-09-17T03:12:18.660Z,94385
2015-09-17T03:12:37.144Z,94376
2015-09-17T03:12:55.504Z,94387
2015-09-17T03:13:13.863Z,94381
2015-09-17T03:13:32.348Z,94379
2015-09-17T03:13:50.708Z,94390
2015-09-17T03:14:09.098Z,94385
2015-09-17T03:14:27.475Z,94375
2015-09-17T03:14:45.975Z,94380
2015-09-17T03:15:04.460Z,94382
2015-09-17T03:15:23.166Z,94388
2015-09-17T03:15:41.807Z,94380
2015-09-17T03:16:00.369Z,94377
2015-09-17T03:16:18.854Z,94385
2015-09-17T03:16:37.493Z,94385
2015-09-17T03:16:56.447Z,94385
2015-09-17T03:17:14.900Z,94382
2015-09-17T03:17:33.305Z,94388
2015-09-17T03:17:52.086Z,94388
2015-09-17T03:18:10.477Z,94393
2015-09-17T03:18:28.913Z,94379
2015-09-17T03:18:47.381Z,94385
2015-09-17T03:19:05.741Z,94382
2015-09-17T03:19:24.269Z,94376
2015-09-17T03:19:42.972Z,94373
2015-09-17T03:20:01.566Z,94371
2015-09-17T03:20:20.191Z,94374
2015-09-17T03:20:38.488Z,94380
2015-09-17T03:20:57.050Z,94372
2015-09-17T03:21:15.519Z,94369
2015-09-17T03:21:34.287Z,94377
2015-09-17T03:21:52.865Z,94377
2015-09-17T03:22:11.240Z,94377
2015-09-17T03:22:29.726Z,94374
2015-09-17T03:22:48.194Z,94374
2015-09-17T03:23:06.601Z,94371
2015-09-17T03:23:25.007Z,94365
2015-09-17T03:23:43.477Z,94374
2015-09-17T03:24:01.836Z,94374
2015-09-17T03:24:20.227Z,94357
2015-09-17T03:24:38.775Z,94368
2015-09-17T03:24:57.182Z,94373
2015-09-17T03:25:15.541Z,94368
2015-09-17T03:25:34.177Z,94363
2015-09-17T03:25:52.599Z,94368
2015-09-17T03:26:11.005Z,94353
2015-09-17T03:26:29.661Z,94362
2015-09-17T03:26:48.231Z,94357
2015-09-17T03:27:06.778Z,94357
2015-09-17T03:27:25.371Z,94360
2015-09-17T03:27:43.895Z,94362
2015-09-17T03:28:02.270Z,94357
2015-09-17T03:28:20.848Z,94357
2015-09-17T03:28:39.465Z,94363
2015-09-17T03:28:58.011Z,94368
2015-09-17T03:29:16.621Z,94363
2015-09-17T03:29:35.160Z,94367
2015-09-17T03:29:53.785Z,94356
2015-09-17T03:30:12.269Z,94358
2015-09-17T03:30:30.660Z,94372
2015-09-17T03:30:49.164Z,94375
2015-09-17T03:31:07.523Z,94364
2015-09-17T03:31:25.914Z,94364
2015-09-17T03:31:44.560Z,94367
2015-09-17T03:32:03.169Z,94359
2015-09-17T03:32:21.841Z,94367
2015-09-17T03:32:40.439Z,94372
2015-09-17T03:32:59.111Z,94369
2015-09-17T03:33:17.595Z,94372
2015-09-17T03:33:36.111Z,94370
2015-09-17T03:33:54.677Z,94370
2015-09-17T03:34:13.115Z,94367
2015-09-17T03:34:31.677Z,94364
2015-09-17T03:34:50.149Z,94358
2015-09-17T03:35:08.758Z,94375
2015-09-17T03:35:27.274Z,94366
2015-09-17T03:35:45.683Z,94363
2015-09-17T03:36:04.464Z,94360
2015-09-17T03:36:23.339Z,94370
2015-09-17T03:36:41.855Z,94367
2015-09-17T03:37:00.233Z,94367
2015-09-17T03:37:18.624Z,94364
2015-09-17T03:37:37.170Z,94359
2015-09-17T03:37:55.939Z,94349
2015-09-17T03:38:14.455Z,94360
2015-09-17T03:38:32.970Z,94360
2015-09-17T03:38:51.348Z,94355
2015-09-17T03:39:10.255Z,94347
2015-09-17T03:39:28.801Z,94347
2015-09-17T03:39:47.383Z,94357
2015-09-17T03:40:06.133Z,94343
2015-09-17T03:40:24.539Z,94349
2015-09-17T03:40:43.133Z,94349
2015-09-17T03:41:01.588Z,94346
2015-09-17T03:41:20.072Z,94346
2015-09-17T03:41:38.431Z,94349
2015-09-17T03:41:57.121Z,94351
2015-09-17T03:42:15.840Z,94356
2015-09-17T03:42:34.949Z,94354
2015-09-17T03:42:53.343Z,94352
2015-09-17T03:43:11.796Z,94338
2015-09-17T03:43:30.186Z,94343
2015-09-17T03:43:48.593Z,94344
2015-09-17T03:44:07.126Z,94344
2015-09-17T03:44:25.501Z,94335
2015-09-17T03:44:43.876Z,94346
2015-09-17T03:45:02.237Z,94335
2015-09-17T03:45:20.675Z,94349
2015-09-17T03:45:39.050Z,94337
2015-09-17T03:45:57.442Z,94342
2015-09-17T03:46:15.880Z,94345
2015-09-17T03:46:34.286Z,94331
2015-09-17T03:46:52.864Z,94335
2015-09-17T03:47:11.241Z,94341
2015-09-17T03:47:29.694Z,94341
2015-09-17T03:47:48.179Z,94338
2015-09-17T03:48:06.868Z,94341
2015-09-17T03:48:25.431Z,94333
2015-09-17T03:48:43.837Z,94336
2015-09-17T03:49:02.339Z,94338
2015-09-17T03:49:20.698Z,94332
2015-09-17T03:49:39.073Z,94341
2015-09-17T03:49:57.558Z,94343
2015-09-17T03:50:15.919Z,94329
2015-09-17T03:50:34.482Z,94340
2015-09-17T03:50:52.857Z,94341
2015-09-17T03:51:11.437Z,94336
2015-09-17T03:51:29.984Z,94337
2015-09-17T03:51:48.452Z,94331
2015-09-17T03:52:07.001Z,94340
2015-09-17T03:52:25.361Z,94337
2015-09-17T03:52:43.720Z,94337
2015-09-17T03:53:02.142Z,94348
2015-09-17T03:53:20.503Z,94342
2015-09-17T03:53:38.863Z,94351
2015-09-17T03:53:57.316Z,94358
2015-09-17T03:54:15.677Z,94350
2015-09-17T03:54:34.037Z,94347
2015-09-17T03:54:52.396Z,94347
2015-09-17T03:55:11.070Z,94357
2015-09-17T03:55:29.429Z,94358
2015-09-17T03:55:47.804Z,94358
2015-09-17T03:56:06.070Z,94358
2015-09-17T03:56:24.431Z,94354
2015-09-17T03:56:42.947Z,94363
2015-09-17T03:57:01.494Z,94357
2015-09-17T03:57:19.761Z,94357
2015-09-17T03:57:38.355Z,94357
2015-09-17T03:57:56.839Z,94353
2015-09-17T03:58:15.309Z,94353